Time;durP1;ratioP1;P1;durP2;ratioP2;P2;SDS_P1;SDS_P2;PMS_P1;PMS_P2;Temp;Humidity;BMP_temperature;BMP_pressure;BME280_temperature;BME280_humidity;BME280_pressure;Samples;Min_cycle;Max_cycle;Signal;HPM_P1;HPM_P2
2022/07/28 00:01:42;;;;;;;9.90;2.75;;;;;;;;;;4989055;28;20148;-47
2022/07/28 00:04:07;;;;;;;7.10;3.35;;;;;;;;;;4987055;28;20035;-52
2022/07/28 00:06:33;;;;;;;7.95;3.97;;;;;;;;;;4985489;28;20473;-47
2022/07/28 00:08:58;;;;;;;9.35;2.50;;;;;;;;;;4986611;28;20057;-51
2022/07/28 00:11:23;;;;;;;17.42;4.13;;;;;;;;;;4986476;28;20524;-52
2022/07/28 00:13:49;;;;;;;5.28;3.40;;;;;;;;;;4987784;28;20054;-53
2022/07/28 00:16:14;;;;;;;1.92;1.60;;;;;;;;;;4986837;28;20661;-52
2022/07/28 00:18:39;;;;;;;4.03;3.25;;;;;;;;;;4987194;28;20154;-52
2022/07/28 00:21:05;;;;;;;4.60;3.05;;;;;;;;;;4987015;28;20414;-50
2022/07/28 00:23:30;;;;;;;7.90;4.20;;;;;;;;;;4987821;28;20046;-50
2022/07/28 00:25:56;;;;;;;8.02;3.40;;;;;;;;;;4986939;28;20046;-51
2022/07/28 00:28:21;;;;;;;7.38;3.88;;;;;;;;;;4986965;28;20051;-52
2022/07/28 00:30:46;;;;;;;5.63;3.30;;;;;;;;;;4987805;28;20061;-48
2022/07/28 00:33:12;;;;;;;8.43;3.47;;;;;;;;;;4987046;28;20052;-49
2022/07/28 00:35:37;;;;;;;4.95;3.38;;;;;;;;;;4987442;28;20141;-50
2022/07/28 00:38:02;;;;;;;6.70;3.03;;;;;;;;;;4986245;28;20054;-52
2022/07/28 00:43:12;;;;;;;8.10;3.03;;;;;;;;;;4986724;28;20630;-48
2022/07/28 00:45:37;;;;;;;4.28;2.28;;;;;;;;;;4986065;28;20050;-46
2022/07/28 00:48:03;;;;;;;4.55;2.72;;;;;;;;;;4986663;28;20116;-50
2022/07/28 00:50:28;;;;;;;10.52;3.15;;;;;;;;;;4986772;28;20517;-52
2022/07/28 00:52:54;;;;;;;6.72;3.45;;;;;;;;;;4986350;28;20047;-48
2022/07/28 00:55:20;;;;;;;7.57;3.58;;;;;;;;;;4986519;28;20116;-51
2022/07/28 00:57:46;;;;;;;7.68;2.83;;;;;;;;;;4986575;28;20069;-50
2022/07/28 01:00:11;;;;;;;3.17;2.40;;;;;;;;;;4986457;28;20497;-46
2022/07/28 01:02:37;;;;;;;5.43;3.38;;;;;;;;;;4986616;28;20576;-45
2022/07/28 01:05:02;;;;;;;13.38;2.75;;;;;;;;;;4986738;28;20092;-49
2022/07/28 01:07:35;;;;;;;3.25;2.35;;;;;;;;;;4984149;28;20093;-51
2022/07/28 01:10:04;;;;;;;4.68;3.33;;;;;;;;;;4986503;28;20038;-50
2022/07/28 01:12:29;;;;;;;6.28;3.53;;;;;;;;;;4987556;28;20160;-49
2022/07/28 01:15:15;;;;;;;6.70;3.85;;;;;;;;;;4986464;28;20116;-54
2022/07/28 01:17:59;;;;;;;3.42;3.03;;;;;;;;;;4980442;28;20465;-51
2022/07/28 01:20:36;;;;;;;3.30;2.58;;;;;;;;;;4986489;28;20034;-50
2022/07/28 01:23:05;;;;;;;4.18;3.10;;;;;;;;;;4984953;28;20093;-50
2022/07/28 01:25:36;;;;;;;3.60;2.85;;;;;;;;;;4986266;28;20042;-53
2022/07/28 01:28:05;;;;;;;7.63;2.30;;;;;;;;;;4986277;28;20114;-50
2022/07/28 01:30:44;;;;;;;11.57;3.92;;;;;;;;;;4987814;28;20038;-53
2022/07/28 01:33:13;;;;;;;4.60;2.72;;;;;;;;;;4989281;28;20920;-53
2022/07/28 01:35:59;;;;;;;5.50;3.35;;;;;;;;;;4989061;28;20057;-54
2022/07/28 01:38:25;;;;;;;4.78;3.13;;;;;;;;;;4983210;28;20042;-50
2022/07/28 01:40:51;;;;;;;7.65;3.38;;;;;;;;;;4989159;28;20132;-51
2022/07/28 01:43:19;;;;;;;8.10;3.33;;;;;;;;;;4989221;28;20038;-47
2022/07/28 01:45:45;;;;;;;11.35;3.83;;;;;;;;;;4989091;28;20494;-51
2022/07/28 01:48:13;;;;;;;6.35;3.20;;;;;;;;;;4988828;28;20056;-51
2022/07/28 01:50:38;;;;;;;6.30;4.07;;;;;;;;;;4987470;28;20101;-49
2022/07/28 01:53:04;;;;;;;4.45;3.05;;;;;;;;;;4988878;28;20042;-49
2022/07/28 01:55:29;;;;;;;5.93;2.80;;;;;;;;;;4988496;28;20137;-53
2022/07/28 01:57:55;;;;;;;7.20;3.42;;;;;;;;;;4989106;28;20506;-46
2022/07/28 02:00:21;;;;;;;6.65;3.58;;;;;;;;;;4988617;28;20057;-50
2022/07/28 02:02:47;;;;;;;7.80;3.65;;;;;;;;;;4989042;28;20494;-50
2022/07/28 02:05:15;;;;;;;5.28;3.92;;;;;;;;;;4988432;28;20077;-53
2022/07/28 02:07:41;;;;;;;7.45;3.60;;;;;;;;;;4988974;28;20046;-52
2022/07/28 02:10:06;;;;;;;12.05;3.28;;;;;;;;;;4988685;28;20066;-50
2022/07/28 02:12:34;;;;;;;3.85;3.03;;;;;;;;;;4988194;28;20113;-50
2022/07/28 02:14:59;;;;;;;4.88;3.28;;;;;;;;;;4987683;28;20066;-49
2022/07/28 02:17:29;;;;;;;4.32;2.25;;;;;;;;;;4988769;28;20085;-53
2022/07/28 02:19:55;;;;;;;8.35;3.63;;;;;;;;;;4988144;28;20104;-51
2022/07/28 02:22:21;;;;;;;5.53;3.25;;;;;;;;;;4988637;28;20069;-50
2022/07/28 02:24:47;;;;;;;6.65;3.50;;;;;;;;;;4988542;28;20069;-51
2022/07/28 02:27:15;;;;;;;5.05;3.00;;;;;;;;;;4990264;28;20062;-53
2022/07/28 02:29:46;;;;;;;4.65;3.42;;;;;;;;;;4989501;28;20046;-53
2022/07/28 02:32:17;;;;;;;7.22;3.45;;;;;;;;;;4988841;28;20031;-54
2022/07/28 02:34:43;;;;;;;10.52;3.50;;;;;;;;;;4988341;28;20053;-54
2022/07/28 02:37:09;;;;;;;6.22;3.58;;;;;;;;;;4988581;28;20120;-54
2022/07/28 02:39:45;;;;;;;8.07;2.78;;;;;;;;;;4987957;28;20101;-48
2022/07/28 02:42:16;;;;;;;4.78;2.35;;;;;;;;;;4987889;28;20042;-49
2022/07/28 02:44:41;;;;;;;;;;;;;;;;;;4988486;28;20073;-50
2022/07/28 02:47:09;;;;;;;5.07;3.07;;;;;;;;;;4988635;28;19917;-47
2022/07/28 02:49:35;;;;;;;4.53;2.22;;;;;;;;;;4987506;28;20678;-54
2022/07/28 02:52:01;;;;;;;4.63;2.63;;;;;;;;;;4988237;28;20054;-55
2022/07/28 02:54:28;;;;;;;3.72;2.85;;;;;;;;;;4988748;28;20054;-49
2022/07/28 02:56:55;;;;;;;9.93;4.47;;;;;;;;;;4987982;28;20046;-54
2022/07/28 02:59:22;;;;;;;5.93;3.20;;;;;;;;;;4988056;28;20042;-50
2022/07/28 03:01:47;;;;;;;5.63;3.72;;;;;;;;;;4987691;28;20125;-48
2022/07/28 03:04:13;;;;;;;6.60;3.40;;;;;;;;;;4988761;28;20134;-54
2022/07/28 03:06:39;;;;;;;11.88;3.97;;;;;;;;;;4988015;28;20038;-52
2022/07/28 03:09:07;;;;;;;8.32;3.15;;;;;;;;;;4987799;28;20049;-49
2022/07/28 03:11:32;;;;;;;4.07;2.80;;;;;;;;;;4987637;28;20128;-51
2022/07/28 03:13:58;;;;;;;5.35;3.33;;;;;;;;;;4988347;28;20446;-49
2022/07/28 03:16:23;;;;;;;12.75;3.70;;;;;;;;;;4988157;28;20485;-53
2022/07/28 03:18:48;;;;;;;7.75;4.45;;;;;;;;;;4987960;28;20042;-52
2022/07/28 03:21:14;;;;;;;17.45;3.63;;;;;;;;;;4987748;28;20652;-52
2022/07/28 03:23:40;;;;;;;2.75;2.45;;;;;;;;;;4987386;28;20486;-51
2022/07/28 03:26:11;;;;;;;9.27;2.92;;;;;;;;;;4987789;28;20410;-53
2022/07/28 03:28:37;;;;;;;15.38;4.40;;;;;;;;;;4987118;28;20050;-46
2022/07/28 03:31:04;;;;;;;6.57;3.67;;;;;;;;;;4987544;28;20508;-55
2022/07/28 03:33:30;;;;;;;5.28;3.35;;;;;;;;;;4986424;28;20050;-51
2022/07/28 03:35:57;;;;;;;5.15;4.43;;;;;;;;;;4987469;28;20060;-52
2022/07/28 03:38:30;;;;;;;6.00;3.25;;;;;;;;;;4987147;28;20501;-47
2022/07/28 03:40:55;;;;;;;4.82;3.55;;;;;;;;;;4987313;28;20086;-50
2022/07/28 03:43:22;;;;;;;4.32;2.97;;;;;;;;;;4987518;28;20065;-51
2022/07/28 03:45:49;;;;;;;7.38;3.97;;;;;;;;;;4987545;28;20038;-51
2022/07/28 03:48:14;;;;;;;13.27;3.88;;;;;;;;;;4987448;28;20104;-52
2022/07/28 03:50:39;;;;;;;5.35;3.83;;;;;;;;;;4987339;28;20121;-51
2022/07/28 03:53:09;;;;;;;9.32;4.13;;;;;;;;;;4987040;28;20054;-49
2022/07/28 03:55:34;;;;;;;5.17;2.80;;;;;;;;;;4987463;28;20050;-51
2022/07/28 03:58:00;;;;;;;7.78;4.95;;;;;;;;;;4987098;28;20599;-52
2022/07/28 04:00:25;;;;;;;7.47;4.03;;;;;;;;;;4986318;28;20046;-52
2022/07/28 04:02:51;;;;;;;6.03;4.60;;;;;;;;;;4987359;28;20050;-52
2022/07/28 04:05:17;;;;;;;11.52;4.78;;;;;;;;;;4986972;28;20506;-54
2022/07/28 04:07:43;;;;;;;5.30;4.43;;;;;;;;;;4987044;28;20046;-51
2022/07/28 04:10:10;;;;;;;5.47;3.03;;;;;;;;;;4987139;28;20121;-48
2022/07/28 04:12:44;;;;;;;3.97;3.35;;;;;;;;;;4987355;28;20064;-48
2022/07/28 04:15:13;;;;;;;3.83;3.03;;;;;;;;;;4986821;28;20049;-46
2022/07/28 04:17:39;;;;;;;11.00;3.42;;;;;;;;;;4986343;28;20112;-50
2022/07/28 04:20:04;;;;;;;7.15;3.28;;;;;;;;;;4986193;28;20042;-52
2022/07/28 04:22:30;;;;;;;6.57;4.47;;;;;;;;;;4986579;28;20042;-52
2022/07/28 04:24:55;;;;;;;3.83;3.42;;;;;;;;;;4985788;28;20039;-52
2022/07/28 04:27:20;;;;;;;6.55;3.80;;;;;;;;;;4988834;28;20062;-49
2022/07/28 04:29:45;;;;;;;4.03;2.72;;;;;;;;;;4986868;28;20109;-47
2022/07/28 04:32:11;;;;;;;9.70;4.28;;;;;;;;;;4987591;28;20534;-52
2022/07/28 04:34:36;;;;;;;4.75;3.70;;;;;;;;;;4987043;28;20076;-51
2022/07/28 04:37:03;;;;;;;5.05;3.95;;;;;;;;;;4988277;28;20073;-52
2022/07/28 04:39:28;;;;;;;5.82;5.22;;;;;;;;;;4985802;28;20046;-53
2022/07/28 04:41:54;;;;;;;8.45;4.53;;;;;;;;;;4986831;28;20531;-54
2022/07/28 04:44:19;;;;;;;13.40;4.57;;;;;;;;;;4986955;28;20739;-54
2022/07/28 04:46:44;;;;;;;15.95;4.82;;;;;;;;;;4986756;28;20552;-51
2022/07/28 04:49:10;;;;;;;7.65;4.78;;;;;;;;;;4986613;28;20441;-49
2022/07/28 04:51:35;;;;;;;8.85;4.93;;;;;;;;;;4986984;28;20157;-49
2022/07/28 04:54:00;;;;;;;20.50;5.57;;;;;;;;;;4986857;28;20549;-53
2022/07/28 04:56:26;;;;;;;5.80;5.13;;;;;;;;;;4986149;28;20217;-54
2022/07/28 04:58:51;;;;;;;8.70;4.28;;;;;;;;;;4986574;28;20050;-53
2022/07/28 05:01:17;;;;;;;11.73;3.65;;;;;;;;;;4986426;28;20038;-48
2022/07/28 05:03:42;;;;;;;18.40;5.75;;;;;;;;;;4987153;28;20057;-51
2022/07/28 05:06:08;;;;;;;6.38;4.57;;;;;;;;;;4989913;28;20046;-54
2022/07/28 05:08:33;;;;;;;4.68;3.88;;;;;;;;;;4992006;28;20054;-52
2022/07/28 05:10:58;;;;;;;11.35;4.13;;;;;;;;;;4989477;28;20629;-51
2022/07/28 05:13:24;;;;;;;12.25;4.38;;;;;;;;;;4989964;28;20046;-47
2022/07/28 05:15:50;;;;;;;10.60;6.05;;;;;;;;;;4989574;28;20038;-53
2022/07/28 05:18:15;;;;;;;5.05;4.00;;;;;;;;;;4988936;28;20093;-54
2022/07/28 05:20:40;;;;;;;16.88;11.20;;;;;;;;;;4989248;28;20454;-52
2022/07/28 05:23:07;;;;;;;12.48;5.63;;;;;;;;;;4989294;28;20178;-54
2022/07/28 05:25:32;;;;;;;8.10;6.00;;;;;;;;;;4989339;28;20061;-53
2022/07/28 05:27:57;;;;;;;4.60;3.92;;;;;;;;;;4989346;28;20038;-51
2022/07/28 05:30:23;;;;;;;11.35;5.35;;;;;;;;;;4989129;28;20049;-53
2022/07/28 05:32:49;;;;;;;7.82;5.38;;;;;;;;;;4989674;28;20509;-52
2022/07/28 05:35:15;;;;;;;16.10;5.60;;;;;;;;;;4987863;28;20045;-53
2022/07/28 05:37:40;;;;;;;13.02;4.32;;;;;;;;;;4989096;28;20062;-49
2022/07/28 05:40:12;;;;;;;9.40;3.88;;;;;;;;;;4989320;28;20042;-53
2022/07/28 05:42:38;;;;;;;8.18;4.88;;;;;;;;;;4989431;28;20038;-50
2022/07/28 05:45:06;;;;;;;7.68;5.45;;;;;;;;;;4989243;28;20038;-51
2022/07/28 05:47:38;;;;;;;7.70;5.68;;;;;;;;;;4990671;28;20081;-47
2022/07/28 05:50:04;;;;;;;5.32;4.82;;;;;;;;;;4989078;28;20056;-51
2022/07/28 05:52:31;;;;;;;12.07;5.20;;;;;;;;;;4989263;28;20038;-52
2022/07/28 05:54:56;;;;;;;8.20;6.32;;;;;;;;;;4988651;28;20074;-50
2022/07/28 05:57:22;;;;;;;8.48;4.80;;;;;;;;;;4988917;28;20093;-48
2022/07/28 05:59:47;;;;;;;18.48;7.15;;;;;;;;;;4987207;28;20553;-48
2022/07/28 06:02:12;;;;;;;6.95;4.93;;;;;;;;;;4989066;28;20054;-47
2022/07/28 06:04:38;;;;;;;9.18;5.35;;;;;;;;;;4988930;28;20073;-53
2022/07/28 06:07:03;;;;;;;7.35;5.35;;;;;;;;;;4988345;28;20129;-51
2022/07/28 06:09:29;;;;;;;9.07;6.28;;;;;;;;;;4989238;28;20050;-51
2022/07/28 06:11:55;;;;;;;8.88;5.78;;;;;;;;;;4986966;28;20661;-52
2022/07/28 06:14:20;;;;;;;9.55;5.10;;;;;;;;;;4988280;28;20050;-53
2022/07/28 06:16:49;;;;;;;10.60;4.57;;;;;;;;;;4988516;28;20085;-53
2022/07/28 06:19:15;;;;;;;26.98;8.93;;;;;;;;;;4988688;28;20126;-49
2022/07/28 06:21:40;;;;;;;40.78;7.88;;;;;;;;;;4990225;28;20046;-52
2022/07/28 06:24:05;;;;;;;16.83;4.20;;;;;;;;;;4988214;28;20133;-48
2022/07/28 06:26:31;;;;;;;8.95;4.35;;;;;;;;;;4988761;28;20046;-52
2022/07/28 06:28:57;;;;;;;6.53;3.13;;;;;;;;;;4989242;28;20043;-53
2022/07/28 06:31:22;;;;;;;9.27;3.13;;;;;;;;;;4989090;28;20072;-49
2022/07/28 06:33:48;;;;;;;7.43;5.22;;;;;;;;;;4988794;28;20513;-54
2022/07/28 06:36:13;;;;;;;35.47;21.48;;;;;;;;;;4988609;28;20042;-55
2022/07/28 06:38:38;;;;;;;32.17;20.60;;;;;;;;;;4987878;28;20498;-56
2022/07/28 06:41:04;;;;;;;24.73;10.75;;;;;;;;;;4988132;28;20050;-55
2022/07/28 06:43:29;;;;;;;16.92;13.35;;;;;;;;;;4988160;28;20072;-55
2022/07/28 06:45:54;;;;;;;11.52;10.27;;;;;;;;;;4987204;28;20592;-55
2022/07/28 06:48:20;;;;;;;10.02;5.80;;;;;;;;;;4984882;28;20100;-54
2022/07/28 06:50:45;;;;;;;8.18;4.80;;;;;;;;;;4986968;28;20391;-56
2022/07/28 06:53:10;;;;;;;5.47;3.28;;;;;;;;;;4988164;28;20192;-55
2022/07/28 06:55:36;;;;;;;6.88;3.90;;;;;;;;;;4987552;28;20464;-53
2022/07/28 06:58:04;;;;;;;6.10;4.05;;;;;;;;;;4988011;28;20462;-55
2022/07/28 07:00:30;;;;;;;10.68;7.03;;;;;;;;;;4987223;28;20096;-52
2022/07/28 07:02:55;;;;;;;16.95;3.97;;;;;;;;;;4989016;28;20133;-55
2022/07/28 07:05:21;;;;;;;12.10;5.32;;;;;;;;;;4987010;28;20680;-59
2022/07/28 07:07:46;;;;;;;9.82;4.72;;;;;;;;;;4986378;28;20086;-59
2022/07/28 07:10:11;;;;;;;6.43;3.70;;;;;;;;;;4986398;28;21050;-59
2022/07/28 07:12:37;;;;;;;6.75;3.15;;;;;;;;;;4985969;28;20062;-59
2022/07/28 07:15:06;;;;;;;14.23;7.88;;;;;;;;;;4986637;28;20358;-59
2022/07/28 07:17:31;;;;;;;5.32;3.95;;;;;;;;;;4985976;28;20046;-59
2022/07/28 07:19:57;;;;;;;16.73;4.60;;;;;;;;;;4986553;28;20080;-59
2022/07/28 07:22:22;;;;;;;6.38;3.92;;;;;;;;;;4987597;28;20073;-59
2022/07/28 07:24:47;;;;;;;8.55;5.13;;;;;;;;;;4987641;28;20050;-59
2022/07/28 07:27:13;;;;;;;8.18;5.28;;;;;;;;;;4986215;28;20068;-59
2022/07/28 07:29:38;;;;;;;11.45;4.43;;;;;;;;;;4986681;28;20054;-59
2022/07/28 07:32:03;;;;;;;8.15;3.28;;;;;;;;;;4987579;28;20042;-60
2022/07/28 07:34:29;;;;;;;13.48;5.55;;;;;;;;;;4987383;28;20419;-59
2022/07/28 07:36:54;;;;;;;17.42;4.55;;;;;;;;;;4986747;28;20062;-59
2022/07/28 07:39:19;;;;;;;7.40;3.90;;;;;;;;;;4987308;28;20046;-59
2022/07/28 07:41:45;;;;;;;5.00;3.03;;;;;;;;;;4990317;28;20461;-59
2022/07/28 07:44:10;;;;;;;3.90;3.00;;;;;;;;;;4984788;28;20050;-58
2022/07/28 07:46:37;;;;;;;2.30;1.65;;;;;;;;;;4987534;28;20038;-59
2022/07/28 07:49:02;;;;;;;11.75;2.50;;;;;;;;;;4987642;28;20505;-58
2022/07/28 07:51:27;;;;;;;8.88;3.35;;;;;;;;;;4987591;28;20073;-58
2022/07/28 07:53:53;;;;;;;10.95;2.17;;;;;;;;;;4988098;28;20046;-59
2022/07/28 07:56:18;;;;;;;23.13;2.13;;;;;;;;;;4987744;28;20046;-59
2022/07/28 07:58:43;;;;;;;3.03;1.73;;;;;;;;;;4985984;28;20140;-59
2022/07/28 08:01:10;;;;;;;3.78;2.35;;;;;;;;;;4986544;28;20184;-59
2022/07/28 08:03:36;;;;;;;3.25;1.80;;;;;;;;;;4987124;28;20049;-59
2022/07/28 08:06:01;;;;;;;4.63;1.63;;;;;;;;;;4987023;28;20652;-59
2022/07/28 08:08:26;;;;;;;21.33;4.70;;;;;;;;;;4986885;28;20743;-59
2022/07/28 08:10:53;;;;;;;4.90;2.60;;;;;;;;;;4986827;28;20654;-59
2022/07/28 08:13:19;;;;;;;3.33;1.85;;;;;;;;;;4986745;28;20054;-59
2022/07/28 08:15:45;;;;;;;1.60;1.38;;;;;;;;;;4986613;28;20046;-59
2022/07/28 08:18:10;;;;;;;7.63;1.52;;;;;;;;;;4986528;28;20085;-59
2022/07/28 08:20:35;;;;;;;2.40;2.13;;;;;;;;;;4987355;28;20054;-59
2022/07/28 08:23:01;;;;;;;4.68;2.55;;;;;;;;;;4986308;28;20398;-59
2022/07/28 08:25:26;;;;;;;3.42;2.35;;;;;;;;;;4986483;28;20042;-59
2022/07/28 08:27:52;;;;;;;5.95;2.40;;;;;;;;;;4986648;28;20050;-59
2022/07/28 08:30:20;;;;;;;7.78;2.53;;;;;;;;;;4986761;28;20560;-59
2022/07/28 08:32:46;;;;;;;11.13;2.47;;;;;;;;;;4984336;28;20050;-59
2022/07/28 08:35:12;;;;;;;4.00;1.75;;;;;;;;;;4986456;28;20049;-60
2022/07/28 08:37:38;;;;;;;8.02;1.92;;;;;;;;;;4984688;28;20080;-59
2022/07/28 08:40:05;;;;;;;7.85;3.75;;;;;;;;;;4988592;28;20053;-59
2022/07/28 08:42:37;;;;;;;3.67;2.55;;;;;;;;;;4988100;28;20046;-59
2022/07/28 08:45:05;;;;;;;9.43;3.03;;;;;;;;;;4987320;28;20070;-59
2022/07/28 08:47:32;;;;;;;5.72;1.55;;;;;;;;;;4988279;28;20515;-59
2022/07/28 08:49:58;;;;;;;3.50;2.20;;;;;;;;;;4988746;28;20124;-59
2022/07/28 08:52:24;;;;;;;6.50;2.20;;;;;;;;;;4988396;28;20074;-59
2022/07/28 08:54:55;;;;;;;3.45;1.65;;;;;;;;;;4989266;28;20548;-59
2022/07/28 08:57:25;;;;;;;10.07;4.43;;;;;;;;;;4989820;28;20373;-59
2022/07/28 08:59:51;;;;;;;6.93;4.18;;;;;;;;;;4989206;28;20084;-59
2022/07/28 09:02:17;;;;;;;10.20;4.60;;;;;;;;;;4990218;28;20050;-59
2022/07/28 09:04:44;;;;;;;1.90;1.50;;;;;;;;;;4989899;28;20105;-60
2022/07/28 09:07:10;;;;;;;9.82;1.98;;;;;;;;;;4988967;28;20053;-59
2022/07/28 09:09:36;;;;;;;8.48;4.25;;;;;;;;;;4988808;28;20050;-59
2022/07/28 09:12:04;;;;;;;23.45;2.72;;;;;;;;;;4989607;28;20065;-59
2022/07/28 09:14:29;;;;;;;6.05;1.75;;;;;;;;;;4989746;28;20050;-59
2022/07/28 09:16:57;;;;;;;1.83;1.52;;;;;;;;;;4989464;28;20936;-59
2022/07/28 09:19:22;;;;;;;3.33;1.80;;;;;;;;;;4988930;28;20050;-59
2022/07/28 09:21:48;;;;;;;2.80;1.83;;;;;;;;;;4989143;28;20066;-59
2022/07/28 09:24:32;;;;;;;1.55;1.38;;;;;;;;;;4989261;28;20101;-59
2022/07/28 09:27:02;;;;;;;4.70;3.03;;;;;;;;;;4989462;28;20056;-59
2022/07/28 09:29:28;;;;;;;3.05;2.15;;;;;;;;;;4989077;28;20133;-59
2022/07/28 09:31:53;;;;;;;5.88;2.78;;;;;;;;;;4989619;28;20169;-59
2022/07/28 09:34:18;;;;;;;6.25;3.63;;;;;;;;;;4989625;28;20140;-59
2022/07/28 09:36:44;;;;;;;7.05;1.67;;;;;;;;;;4989497;28;20080;-59
2022/07/28 09:39:09;;;;;;;2.92;1.42;;;;;;;;;;4987717;28;20494;-59
2022/07/28 09:41:57;;;;;;;10.60;9.50;;;;;;;;;;4989628;28;20050;-59
2022/07/28 09:44:23;;;;;;;3.38;1.98;;;;;;;;;;4988897;28;20038;-59
2022/07/28 09:46:48;;;;;;;20.38;3.22;;;;;;;;;;4987038;28;20494;-59
2022/07/28 09:49:13;;;;;;;3.58;2.03;;;;;;;;;;4988190;28;20054;-58
2022/07/28 09:51:39;;;;;;;5.00;2.70;;;;;;;;;;4985947;28;20449;-59
2022/07/28 09:54:06;;;;;;;15.05;3.38;;;;;;;;;;4988365;28;20540;-59
2022/07/28 09:56:32;;;;;;;7.93;2.80;;;;;;;;;;4988078;28;20068;-59
2022/07/28 09:58:58;;;;;;;2.38;1.73;;;;;;;;;;4988965;28;20081;-59
2022/07/28 10:01:24;;;;;;;2.83;2.05;;;;;;;;;;4988770;28;20054;-58
2022/07/28 10:03:51;;;;;;;2.53;1.65;;;;;;;;;;4988115;28;20615;-58
2022/07/28 10:06:23;;;;;;;3.78;2.55;;;;;;;;;;4988652;28;20039;-59
2022/07/28 10:08:49;;;;;;;4.43;1.92;;;;;;;;;;4988265;28;20505;-58
2022/07/28 10:11:15;;;;;;;7.57;2.05;;;;;;;;;;4989197;28;20042;-59
2022/07/28 10:14:12;;;;;;;4.68;1.60;;;;;;;;;;4987956;28;20046;-58
2022/07/28 10:16:45;;;;;;;5.75;2.17;;;;;;;;;;4976590;28;20042;-58
2022/07/28 10:19:11;;;;;;;2.78;1.52;;;;;;;;;;4988563;28;20062;-59
2022/07/28 10:21:43;;;;;;;8.63;2.10;;;;;;;;;;4988262;28;20042;-58
2022/07/28 10:24:12;;;;;;;2.38;1.42;;;;;;;;;;4987934;28;20049;-58
2022/07/28 10:26:41;;;;;;;3.97;3.25;;;;;;;;;;4988183;28;20524;-58
2022/07/28 10:29:11;;;;;;;2.47;1.75;;;;;;;;;;4986403;28;20101;-58
2022/07/28 10:31:36;;;;;;;10.03;2.10;;;;;;;;;;4988104;28;20050;-58
2022/07/28 10:34:04;;;;;;;5.30;3.20;;;;;;;;;;4989785;28;20054;-58
2022/07/28 10:36:31;;;;;;;8.93;2.90;;;;;;;;;;4987790;28;20077;-58
2022/07/28 10:39:11;;;;;;;7.45;2.17;;;;;;;;;;4988873;28;20057;-58
2022/07/28 10:41:40;;;;;;;5.32;2.58;;;;;;;;;;4987619;28;20122;-58
2022/07/28 10:44:06;;;;;;;3.53;1.77;;;;;;;;;;4988285;28;20161;-58
2022/07/28 10:46:32;;;;;;;3.65;2.75;;;;;;;;;;4990329;28;20498;-58
2022/07/28 10:48:59;;;;;;;7.57;3.55;;;;;;;;;;4987734;28;20048;-57
2022/07/28 10:51:25;;;;;;;3.40;1.63;;;;;;;;;;4986199;28;20074;-57
2022/07/28 10:53:53;;;;;;;5.13;2.50;;;;;;;;;;4988218;28;20113;-58
2022/07/28 10:56:29;;;;;;;8.05;2.58;;;;;;;;;;4988362;28;20596;-58
2022/07/28 10:59:02;;;;;;;15.38;3.22;;;;;;;;;;4986975;28;20831;-58
2022/07/28 11:01:38;;;;;;;9.40;2.88;;;;;;;;;;4985038;28;20066;-58
2022/07/28 11:04:05;;;;;;;6.15;2.53;;;;;;;;;;4987957;28;20446;-58
2022/07/28 11:06:33;;;;;;;3.28;1.90;;;;;;;;;;4987787;28;20186;-58
2022/07/28 11:09:18;;;;;;;2.38;2.15;;;;;;;;;;4986969;28;20065;-58
2022/07/28 11:11:45;;;;;;;2.33;1.83;;;;;;;;;;4987239;28;20061;-59
2022/07/28 11:14:56;;;;;;;10.07;2.45;;;;;;;;;;4987916;28;20054;-59
2022/07/28 11:17:15;;;;;;;2.53;1.42;;;;;;;;;;4985076;28;20176;-58
2022/07/28 11:19:44;;;;;;;3.22;2.88;;;;;;;;;;4987465;28;20173;-58
2022/07/28 11:22:20;;;;;;;3.55;1.58;;;;;;;;;;4987405;28;20049;-58
2022/07/28 11:24:58;;;;;;;9.18;3.97;;;;;;;;;;4987649;28;20057;-55
2022/07/28 11:27:56;;;;;;;5.20;2.80;;;;;;;;;;4986970;28;20167;-56
2022/07/28 11:30:24;;;;;;;4.32;2.08;;;;;;;;;;4986144;28;20053;-58
2022/07/28 11:32:49;;;;;;;1.77;1.27;;;;;;;;;;4987261;28;20153;-57
2022/07/28 11:35:15;;;;;;;5.35;2.72;;;;;;;;;;4987649;28;20509;-57
2022/07/28 11:37:59;;;;;;;9.75;2.03;;;;;;;;;;4987179;28;20116;-55
2022/07/28 11:40:33;;;;;;;7.30;3.08;;;;;;;;;;4987316;28;20133;-57
2022/07/28 11:43:17;;;;;;;15.50;4.65;;;;;;;;;;4987428;28;20046;-57
2022/07/28 11:45:43;;;;;;;8.80;3.58;;;;;;;;;;4985999;28;20218;-56
2022/07/28 11:48:12;;;;;;;3.95;1.67;;;;;;;;;;4985369;28;20530;-56
2022/07/28 11:50:37;;;;;;;4.85;2.58;;;;;;;;;;4985450;28;20046;-57
2022/07/28 11:53:02;;;;;;;4.20;1.98;;;;;;;;;;4986668;28;20269;-57
2022/07/28 11:55:29;;;;;;;2.00;1.13;;;;;;;;;;4986521;28;20038;-57
2022/07/28 11:57:54;;;;;;;3.63;1.52;;;;;;;;;;4986611;28;20054;-57
2022/07/28 12:00:21;;;;;;;2.78;1.70;;;;;;;;;;4986322;28;20216;-57
2022/07/28 12:02:46;;;;;;;2.03;1.48;;;;;;;;;;4987727;28;20510;-57
2022/07/28 12:05:12;;;;;;;5.97;3.25;;;;;;;;;;4988210;28;20038;-57
2022/07/28 12:07:39;;;;;;;6.20;1.83;;;;;;;;;;4986395;28;20066;-57
2022/07/28 12:10:23;;;;;;;7.30;2.78;;;;;;;;;;4986237;28;20050;-58
2022/07/28 12:12:49;;;;;;;5.28;1.65;;;;;;;;;;4985596;28;20050;-57
2022/07/28 12:15:15;;;;;;;3.00;1.88;;;;;;;;;;4985873;28;20094;-57
2022/07/28 12:17:40;;;;;;;3.25;2.03;;;;;;;;;;4985508;28;20526;-56
2022/07/28 12:20:07;;;;;;;3.92;1.73;;;;;;;;;;4985023;28;20052;-57
2022/07/28 12:22:32;;;;;;;9.25;3.50;;;;;;;;;;4986298;28;20050;-57
2022/07/28 12:24:58;;;;;;;4.70;1.77;;;;;;;;;;4986377;28;20461;-57
2022/07/28 12:27:27;;;;;;;4.15;2.63;;;;;;;;;;4986698;28;20058;-57
2022/07/28 12:29:58;;;;;;;13.43;3.72;;;;;;;;;;4985990;28;20038;-57
2022/07/28 12:32:36;;;;;;;1.85;1.20;;;;;;;;;;4986054;28;20080;-57
2022/07/28 12:35:02;;;;;;;4.35;2.20;;;;;;;;;;4987294;28;20085;-57
2022/07/28 12:37:28;;;;;;;7.07;2.35;;;;;;;;;;4989071;28;20042;-57
2022/07/28 12:39:53;;;;;;;12.45;3.00;;;;;;;;;;4986492;28;20053;-57
2022/07/28 12:42:19;;;;;;;3.72;2.05;;;;;;;;;;4986585;28;20046;-57
2022/07/28 12:44:46;;;;;;;4.70;1.52;;;;;;;;;;4985755;28;20050;-57
2022/07/28 12:47:13;;;;;;;3.28;2.05;;;;;;;;;;4986684;28;20160;-57
2022/07/28 12:49:39;;;;;;;1.83;0.95;;;;;;;;;;4986616;28;20046;-57
2022/07/28 12:52:21;;;;;;;4.72;2.95;;;;;;;;;;4986665;28;20046;-57
2022/07/28 12:54:46;;;;;;;6.57;1.25;;;;;;;;;;4987264;28;20047;-57
2022/07/28 12:57:12;;;;;;;2.05;1.30;;;;;;;;;;4986371;28;20038;-57
2022/07/28 12:59:38;;;;;;;3.35;2.28;;;;;;;;;;4986867;28;20498;-57
2022/07/28 13:02:07;;;;;;;10.50;1.35;;;;;;;;;;4985375;28;20045;-56
2022/07/28 13:04:38;;;;;;;13.65;2.92;;;;;;;;;;4986284;28;20055;-58
2022/07/28 13:07:08;;;;;;;4.93;2.63;;;;;;;;;;4986510;28;20100;-57
2022/07/28 13:09:34;;;;;;;5.10;3.35;;;;;;;;;;4986601;28;20129;-57
2022/07/28 13:11:59;;;;;;;3.08;1.85;;;;;;;;;;4985922;28;20121;-57
2022/07/28 13:14:37;;;;;;;12.00;4.00;;;;;;;;;;4986502;28;20055;-57
2022/07/28 13:17:02;;;;;;;8.63;2.10;;;;;;;;;;4985976;28;20105;-59
2022/07/28 13:19:28;;;;;;;2.88;1.67;;;;;;;;;;4986340;28;20050;-57
2022/07/28 13:21:56;;;;;;;5.28;1.65;;;;;;;;;;4986103;28;20457;-57
2022/07/28 13:24:22;;;;;;;4.28;2.50;;;;;;;;;;4985345;28;20069;-57
2022/07/28 13:26:47;;;;;;;4.65;1.70;;;;;;;;;;4989753;28;20042;-58
2022/07/28 13:29:13;;;;;;;2.13;1.00;;;;;;;;;;4989823;28;20054;-58
2022/07/28 13:31:38;;;;;;;5.35;1.42;;;;;;;;;;4989381;28;20050;-57
2022/07/28 13:34:04;;;;;;;6.50;2.00;;;;;;;;;;4989082;28;20628;-57
2022/07/28 13:36:30;;;;;;;6.20;2.55;;;;;;;;;;4989262;28;20050;-58
2022/07/28 13:38:55;;;;;;;6.80;1.40;;;;;;;;;;4989453;28;20050;-57
2022/07/28 13:41:21;;;;;;;5.38;2.90;;;;;;;;;;4989664;28;20674;-57
2022/07/28 13:43:47;;;;;;;4.85;1.88;;;;;;;;;;4989170;28;20506;-55
2022/07/28 13:46:13;;;;;;;0.90;0.50;;;;;;;;;;4989182;28;20387;-57
2022/07/28 13:48:42;;;;;;;8.80;2.95;;;;;;;;;;4988956;28;20072;-56
2022/07/28 13:51:09;;;;;;;2.17;0.75;;;;;;;;;;4988516;28;20521;-55
2022/07/28 13:53:35;;;;;;;5.40;1.75;;;;;;;;;;4988949;28;20058;-57
2022/07/28 13:56:00;;;;;;;3.00;1.80;;;;;;;;;;4989029;28;20061;-57
2022/07/28 13:58:26;;;;;;;3.65;1.90;;;;;;;;;;4988918;28;20085;-57
2022/07/28 14:00:51;;;;;;;3.92;1.10;;;;;;;;;;4988900;28;20052;-56
2022/07/28 14:03:16;;;;;;;2.30;1.95;;;;;;;;;;4990398;28;20041;-57
2022/07/28 14:05:42;;;;;;;1.77;1.15;;;;;;;;;;4989327;28;20125;-57
2022/07/28 14:08:07;;;;;;;2.53;1.58;;;;;;;;;;4988900;28;21123;-57
2022/07/28 14:10:34;;;;;;;1.60;0.90;;;;;;;;;;4988671;28;20088;-57
2022/07/28 14:12:59;;;;;;;2.65;2.40;;;;;;;;;;4989101;28;20049;-57
2022/07/28 14:15:25;;;;;;;2.28;1.23;;;;;;;;;;4988879;28;20046;-57
2022/07/28 14:17:50;;;;;;;4.78;3.30;;;;;;;;;;4988233;28;20054;-57
2022/07/28 14:20:15;;;;;;;2.88;2.13;;;;;;;;;;4988332;28;20096;-57
2022/07/28 14:22:41;;;;;;;3.53;1.88;;;;;;;;;;4987704;28;20047;-57
2022/07/28 14:25:07;;;;;;;4.60;2.22;;;;;;;;;;4988718;28;20050;-57
2022/07/28 14:27:33;;;;;;;5.85;1.95;;;;;;;;;;4987895;28;20161;-57
2022/07/28 14:29:58;;;;;;;3.95;2.58;;;;;;;;;;4988189;28;20391;-57
2022/07/28 14:32:23;;;;;;;6.22;3.22;;;;;;;;;;4989604;28;20046;-57
2022/07/28 14:34:49;;;;;;;3.95;2.42;;;;;;;;;;4990044;28;20038;-57
2022/07/28 14:37:14;;;;;;;3.75;2.40;;;;;;;;;;4988084;28;20141;-57
2022/07/28 14:39:40;;;;;;;3.70;2.47;;;;;;;;;;4987842;28;20034;-58
2022/07/28 14:42:06;;;;;;;7.47;3.28;;;;;;;;;;4989545;28;20609;-58
2022/07/28 14:44:32;;;;;;;5.43;1.63;;;;;;;;;;4988148;28;20046;-58